Time;durP1;ratioP1;P1;durP2;ratioP2;P2;SDS_P1;SDS_P2;PMS_P1;PMS_P2;Temp;Humidity;BMP_temperature;BMP_pressure;BME280_temperature;BME280_humidity;BME280_pressure;Samples;Min_cycle;Max_cycle;Signal;HPM_P1;HPM_P2
2022/07/14 00:01:39;;;;;;;10.60;5.90;;;;;;;20.60;59.85;99818.66;106400;1270;108297;-63
2022/07/14 00:04:12;;;;;;;6.80;5.30;;;;;;;20.60;59.73;99814.83;107723;1270;139128;-63
2022/07/14 00:06:45;;;;;;;7.40;5.20;;;;;;;20.58;59.73;99812.50;107228;1270;95177;-62
2022/07/14 00:09:17;;;;;;;11.20;5.10;;;;;;;20.57;59.56;99809.94;106348;1270;96332;-64
2022/07/14 00:11:50;;;;;;;7.70;5.20;;;;;;;20.54;59.75;99805.39;107787;1270;139303;-63
2022/07/14 00:14:22;;;;;;;10.10;6.10;;;;;;;20.50;59.77;99804.27;107835;1270;109255;-61
2022/07/14 00:16:55;;;;;;;8.30;5.60;;;;;;;20.47;59.84;99802.61;107474;1270;138860;-63
2022/07/14 00:19:28;;;;;;;8.60;5.70;;;;;;;20.43;60.04;99804.84;106359;1270;96578;-63
2022/07/14 00:22:00;;;;;;;9.80;5.60;;;;;;;20.38;60.09;99807.49;107720;1270;139326;-62
2022/07/14 00:24:32;;;;;;;8.80;5.40;;;;;;;20.33;60.09;99809.65;106583;1270;110491;-64
2022/07/14 00:27:05;;;;;;;7.70;5.10;;;;;;;20.27;60.28;99807.11;106339;1270;107604;-62
2022/07/14 00:29:38;;;;;;;7.00;5.00;;;;;;;20.24;60.29;99804.26;107695;1270;138476;-62
2022/07/14 00:32:11;;;;;;;8.40;5.90;;;;;;;20.21;60.39;99802.72;107731;1270;94786;-63
2022/07/14 00:34:43;;;;;;;8.20;5.40;;;;;;;20.15;60.40;99798.39;107705;1270;138243;-62
2022/07/14 00:37:17;;;;;;;8.90;5.50;;;;;;;20.12;60.47;99797.27;107808;1270;111010;-63
2022/07/14 00:40:00;;;;;;;10.10;5.40;;;;;;;20.07;60.66;99797.46;107792;1270;107755;-62
2022/07/14 00:42:36;;;;;;;9.20;6.10;;;;;;;20.02;60.76;99793.42;107022;1270;108786;-62
2022/07/14 00:45:11;;;;;;;9.40;5.60;;;;;;;19.97;60.83;99793.64;106227;1270;96601;-62
2022/07/14 00:47:46;;;;;;;6.90;5.70;;;;;;;19.92;61.13;99798.08;106864;1270;137947;-62
2022/07/14 00:50:20;;;;;;;9.90;6.10;;;;;;;19.88;61.33;99798.58;106844;1270;111132;-63
2022/07/14 00:52:52;;;;;;;7.90;5.60;;;;;;;19.84;61.26;99795.73;107671;1270;138028;-62
2022/07/14 00:55:25;;;;;;;9.70;5.90;;;;;;;19.79;61.52;99791.20;107786;1270;108853;-62
2022/07/14 00:57:58;;;;;;;7.20;5.50;;;;;;;19.75;61.57;99786.52;107751;1270;95924;-62
2022/07/14 01:00:30;;;;;;;8.00;5.70;;;;;;;19.71;61.80;99788.98;106842;1270;96383;-62
2022/07/14 01:03:05;;;;;;;10.90;6.50;;;;;;;19.67;61.89;99796.00;107769;1270;111034;-63
2022/07/14 01:05:37;;;;;;;10.00;6.00;;;;;;;19.62;61.99;99797.59;107023;1270;138658;-62
2022/07/14 01:08:10;;;;;;;10.10;6.40;;;;;;;19.60;62.11;99804.48;106450;1270;109048;-62
2022/07/14 01:10:43;;;;;;;9.70;6.00;;;;;;;19.56;62.13;99808.80;107516;1270;139010;-62
2022/07/14 01:13:15;;;;;;;9.00;6.40;;;;;;;19.50;62.33;99807.66;107769;1271;94807;-62
2022/07/14 01:15:48;;;;;;;11.40;6.30;;;;;;;19.47;62.32;99804.02;107811;1270;111369;-62
2022/07/14 01:18:22;;;;;;;10.40;6.40;;;;;;;19.42;62.58;99805.34;107612;1271;138878;-63
2022/07/14 01:20:55;;;;;;;7.80;6.50;;;;;;;19.37;62.62;99813.23;107671;1270;107756;-63
2022/07/14 01:23:27;;;;;;;8.80;6.20;;;;;;;19.32;63.05;99810.58;107635;1270;139409;-63
2022/07/14 01:25:59;;;;;;;10.70;6.50;;;;;;;19.29;63.04;99811.54;107858;1270;94733;-62
2022/07/14 01:28:32;;;;;;;9.50;6.40;;;;;;;19.24;63.22;99810.99;107632;1271;140188;-63
2022/07/14 01:31:04;;;;;;;7.40;6.00;;;;;;;19.20;63.21;99812.21;107850;1270;108327;-63
2022/07/14 01:33:38;;;;;;;11.50;7.10;;;;;;;19.15;63.43;99810.27;107788;1271;108864;-62
2022/07/14 01:36:11;;;;;;;10.70;6.80;;;;;;;19.11;63.58;99807.59;107747;1270;138405;-63
2022/07/14 01:38:43;;;;;;;12.20;6.50;;;;;;;19.07;63.71;99803.48;107847;1269;94609;-62
2022/07/14 01:41:17;;;;;;;9.30;6.50;;;;;;;19.03;63.89;99802.04;107215;1270;138463;-62
2022/07/14 01:43:49;;;;;;;11.10;7.20;;;;;;;19.01;64.11;99801.31;107019;1270;108899;-63
2022/07/14 01:46:22;;;;;;;10.30;6.90;;;;;;;18.97;64.16;99801.58;107258;1269;138402;-62
2022/07/14 01:48:55;;;;;;;9.30;6.60;;;;;;;18.92;64.22;99801.11;106330;1271;96482;-63
2022/07/14 01:51:27;;;;;;;8.00;6.50;;;;;;;18.87;64.31;99797.77;106518;1271;96389;-63
2022/07/14 01:54:00;;;;;;;9.60;6.70;;;;;;;18.83;64.40;99797.38;107008;1270;138749;-63
2022/07/14 01:56:33;;;;;;;11.70;7.00;;;;;;;18.79;64.50;99803.69;106381;1270;108882;-64
2022/07/14 01:59:05;;;;;;;8.70;6.80;;;;;;;18.74;64.66;99807.59;107565;1270;139289;-62
2022/07/14 02:01:41;;;;;;;8.60;6.80;;;;;;;18.68;64.71;99805.83;107737;1270;94836;-62
2022/07/14 02:04:16;;;;;;;9.90;7.10;;;;;;;18.64;64.85;99807.35;107635;1270;139114;-62
2022/07/14 02:06:50;;;;;;;10.90;6.90;;;;;;;18.60;64.79;99809.54;106793;1270;111434;-61
2022/07/14 02:12:36;;;;;;;7.80;6.80;;;;;;;18.53;65.23;99817.83;106544;1270;108153;-63
2022/07/14 02:15:11;;;;;;;10.30;7.50;;;;;;;18.51;65.20;99807.96;107733;1270;94444;-62
2022/07/14 02:17:43;;;;;;;11.00;7.20;;;;;;;18.49;65.28;99811.27;106601;1271;138115;-62
2022/07/14 02:20:16;;;;;;;8.80;7.00;;;;;;;18.45;65.22;99812.09;106202;1271;111059;-64
2022/07/14 02:22:51;;;;;;;12.80;7.80;;;;;;;18.41;65.37;99811.11;107408;1270;138448;-62
2022/07/14 02:25:24;;;;;;;10.90;7.60;;;;;;;18.37;65.52;99811.60;107006;1271;108775;-62
2022/07/14 02:27:56;;;;;;;8.80;6.80;;;;;;;18.33;65.62;99816.48;107767;1271;94724;-62
2022/07/14 02:30:28;;;;;;;9.60;7.40;;;;;;;18.29;65.81;99815.98;106754;1270;96490;-62
2022/07/14 02:33:01;;;;;;;9.70;7.60;;;;;;;18.26;65.83;99817.16;106216;1270;110214;-62
2022/07/14 02:35:33;;;;;;;11.40;7.90;;;;;;;18.22;65.81;99814.64;107734;1270;138755;-62
2022/07/14 02:38:06;;;;;;;10.00;7.60;;;;;;;18.18;65.98;99812.58;107728;1270;108649;-62
2022/07/14 02:40:38;;;;;;;9.10;7.00;;;;;;;18.16;65.97;99812.95;107696;1270;139215;-62
2022/07/14 02:43:11;;;;;;;10.30;7.50;;;;;;;18.15;66.11;99811.60;107823;1270;94657;-62
2022/07/14 02:45:44;;;;;;;9.60;7.20;;;;;;;18.14;66.11;99815.01;107631;1271;110140;-62
2022/07/14 02:48:16;;;;;;;12.70;7.20;;;;;;;18.12;66.20;99818.77;106753;1271;139464;-62
2022/07/14 02:50:49;;;;;;;9.60;7.40;;;;;;;18.11;66.32;99811.45;107739;1271;108270;-62
2022/07/14 02:53:21;;;;;;;10.60;7.80;;;;;;;18.11;66.26;99808.62;107684;1270;138381;-62
2022/07/14 02:55:55;;;;;;;10.40;7.80;;;;;;;18.12;66.33;99820.55;107740;1270;95098;-63
2022/07/14 02:58:28;;;;;;;10.00;7.70;;;;;;;18.11;66.49;99813.77;107581;1271;138477;-63
2022/07/14 03:01:00;;;;;;;9.80;7.40;;;;;;;18.11;66.51;99816.89;107702;1271;108860;-62
2022/07/14 03:03:34;;;;;;;12.70;8.30;;;;;;;18.12;66.53;99816.11;107701;1270;108424;-63
2022/07/14 03:06:13;;;;;;;11.10;7.20;;;;;;;18.14;66.48;99816.77;107544;1271;138200;-63
2022/07/14 03:08:47;;;;;;;13.80;8.80;;;;;;;18.16;66.40;99817.70;107638;1273;94662;-63
2022/07/14 03:11:20;;;;;;;10.70;7.70;;;;;;;18.17;66.39;99821.45;107575;1271;139175;-63
2022/07/14 03:13:52;;;;;;;9.60;7.90;;;;;;;18.18;66.31;99819.10;107642;1271;108874;-63
2022/07/14 03:16:25;;;;;;;11.10;7.50;;;;;;;18.18;66.40;99819.83;107417;1270;138673;-63
2022/07/14 03:18:59;;;;;;;10.10;7.20;;;;;;;18.17;66.42;99823.23;106969;1270;96902;-63
2022/07/14 03:21:32;;;;;;;10.40;7.50;;;;;;;18.18;66.40;99827.55;107794;1270;94834;-63
2022/07/14 03:24:06;;;;;;;12.50;7.20;;;;;;;18.18;66.32;99837.95;106393;1271;138212;-62
2022/07/14 03:26:39;;;;;;;9.50;7.30;;;;;;;18.18;66.40;99838.48;107714;1271;108779;-63
2022/07/14 03:29:11;;;;;;;9.70;6.90;;;;;;;18.19;66.28;99837.86;107252;1270;138230;-63
2022/07/14 03:31:44;;;;;;;8.60;6.70;;;;;;;18.19;66.41;99839.46;106558;1270;96669;-62
2022/07/14 03:34:18;;;;;;;12.80;6.80;;;;;;;18.21;66.40;99840.17;106900;1271;140100;-62
2022/07/14 03:36:51;;;;;;;11.10;7.30;;;;;;;18.27;66.40;99839.23;106254;1271;110698;-62
2022/07/14 03:39:29;;;;;;;9.00;6.70;;;;;;;18.32;66.27;99842.60;106375;1270;108682;-62
2022/07/14 03:42:01;;;;;;;9.30;7.00;;;;;;;18.34;66.17;99841.75;106219;1271;140642;-62
2022/07/14 03:44:33;;;;;;;12.70;8.30;;;;;;;18.36;66.20;99847.42;106360;1270;96488;-62
2022/07/14 03:47:06;;;;;;;11.20;7.20;;;;;;;18.38;66.00;99851.66;106079;1270;138187;-63
2022/07/14 03:49:39;;;;;;;9.60;6.50;;;;;;;18.39;66.17;99845.55;106293;1271;111004;-63
2022/07/14 03:52:12;;;;;;;9.00;6.50;;;;;;;18.43;66.16;99843.55;106123;1270;138803;-63
2022/07/14 03:54:46;;;;;;;9.70;7.50;;;;;;;18.45;66.06;99839.53;106511;1271;106533;-62
2022/07/14 03:57:19;;;;;;;11.40;8.20;;;;;;;18.47;66.11;99838.82;107452;1270;96513;-62
2022/07/14 03:59:52;;;;;;;11.10;8.20;;;;;;;18.50;66.01;99840.05;106841;1270;137980;-61
2022/07/14 04:02:24;;;;;;;9.50;7.20;;;;;;;18.56;66.12;99845.81;107810;1270;110118;-61
2022/07/14 04:04:56;;;;;;;9.70;6.90;;;;;;;18.64;65.98;99849.41;106734;1271;139481;-61
2022/07/14 04:07:29;;;;;;;13.60;7.00;;;;;;;18.75;65.82;99850.46;106451;1271;109976;-61
2022/07/14 04:10:02;;;;;;;8.40;6.80;;;;;;;18.83;65.66;99853.17;106972;1271;96763;-62
2022/07/14 04:12:34;;;;;;;9.30;6.60;;;;;;;18.91;65.55;99850.00;106250;1271;96401;-62
2022/07/14 04:15:10;;;;;;;8.50;7.10;;;;;;;18.96;65.42;99848.52;106990;1270;109788;-62
2022/07/14 04:17:43;;;;;;;10.00;7.00;;;;;;;19.00;65.31;99846.64;106575;1271;138274;-61
2022/07/14 04:20:16;;;;;;;10.20;7.00;;;;;;;19.05;65.17;99842.77;107731;1271;108242;-63
2022/07/14 04:22:49;;;;;;;9.00;7.30;;;;;;;19.10;65.16;99844.31;106644;1271;138376;-61
2022/07/14 04:25:22;;;;;;;8.70;6.70;;;;;;;19.17;65.08;99839.42;107768;1270;94470;-62
2022/07/14 04:27:54;;;;;;;11.60;7.40;;;;;;;19.25;64.94;99844.48;107018;1270;110220;-62
2022/07/14 04:30:27;;;;;;;7.60;6.80;;;;;;;19.33;64.86;99843.83;106148;1271;139347;-62
2022/07/14 04:33:00;;;;;;;8.70;7.30;;;;;;;19.41;64.66;99844.16;107859;1270;107480;-62
2022/07/14 04:35:32;;;;;;;8.60;6.60;;;;;;;19.48;64.56;99841.47;107622;1271;139051;-62
2022/07/14 04:38:06;;;;;;;10.10;5.90;;;;;;;19.59;64.39;99833.83;107730;1271;94694;-62
2022/07/14 04:40:50;;;;;;;8.10;6.90;;;;;;;19.69;64.27;99836.38;106483;1271;138283;-62
2022/07/14 04:43:24;;;;;;;9.50;6.70;;;;;;;19.79;63.97;99835.42;107825;1271;108887;-62
2022/07/14 04:45:58;;;;;;;8.40;6.40;;;;;;;19.90;63.68;99838.98;107650;1271;108976;-61
2022/07/14 04:52:01;;;;;;;9.00;6.40;;;;;;;19.98;63.73;99837.86;106983;1271;95573;-62
2022/07/14 04:54:14;;;;;;;8.50;5.90;;;;;;;20.18;63.25;99838.42;107642;1270;142066;-62
2022/07/14 04:57:07;;;;;;;7.30;6.20;;;;;;;20.24;63.11;99836.15;107146;1270;109618;-62
2022/07/14 04:59:42;;;;;;;8.00;5.50;;;;;;;20.31;63.11;99831.38;106159;1271;139129;-62
2022/07/14 05:02:15;;;;;;;9.20;6.30;;;;;;;20.41;62.94;99834.15;107761;1270;94985;-62
2022/07/14 05:04:48;;;;;;;10.10;5.90;;;;;;;20.48;62.75;99836.40;106594;1269;138503;-62
2022/07/14 05:07:21;;;;;;;7.90;6.20;;;;;;;20.61;62.74;99833.43;106880;1271;111073;-62
2022/07/14 05:09:59;;;;;;;7.70;5.80;;;;;;;20.75;62.44;99830.20;107693;1271;108183;-62
2022/07/14 05:12:31;;;;;;;9.40;6.50;;;;;;;20.91;62.00;99836.27;107667;1271;108837;-62
2022/07/14 05:15:05;;;;;;;8.50;5.30;;;;;;;21.08;61.94;99833.14;107807;1271;94596;-62
2022/07/14 05:17:37;;;;;;;8.40;5.90;;;;;;;21.28;61.57;99828.16;107689;1271;151552;-62
2022/07/14 05:20:14;;;;;;;9.30;5.90;;;;;;;21.51;61.15;99837.01;107713;1271;109957;-62
2022/07/14 05:22:48;;;;;;;8.50;5.00;;;;;;;21.79;60.82;99838.73;107671;1271;139389;-62
2022/07/14 05:25:21;;;;;;;9.50;5.60;;;;;;;22.05;60.11;99832.93;107791;1271;108908;-62
2022/07/14 05:27:53;;;;;;;7.20;4.80;;;;;;;22.30;59.82;99831.08;106974;1270;96592;-62
2022/07/14 05:30:41;;;;;;;6.50;4.50;;;;;;;22.67;59.37;99836.16;107812;1271;94434;-62
2022/07/14 05:33:13;;;;;;;6.20;4.50;;;;;;;22.99;58.67;99834.07;106777;1271;111219;-62
2022/07/14 05:35:46;;;;;;;5.10;3.90;;;;;;;23.28;58.00;99839.74;106299;1271;137747;-62
2022/07/14 05:38:20;;;;;;;5.50;3.90;;;;;;;23.55;57.28;99842.67;107810;1269;108947;-63
2022/07/14 05:40:53;;;;;;;8.80;4.20;;;;;;;23.82;56.72;99849.85;107241;1270;137387;-63
2022/07/14 05:43:26;;;;;;;3.50;3.10;;;;;;;23.99;55.38;99843.86;107750;1271;94909;-63
2022/07/14 05:46:07;;;;;;;5.70;3.00;;;;;;;24.18;54.45;99846.18;106729;1271;111327;-63
2022/07/14 05:48:42;;;;;;;4.00;3.10;;;;;;;24.42;54.22;99850.13;107689;1271;108992;-63
2022/07/14 05:51:17;;;;;;;3.80;2.80;;;;;;;25.17;53.71;99845.98;107364;1271;108841;-62
2022/07/14 05:53:53;;;;;;;3.50;2.50;;;;;;;26.72;52.33;99847.89;106277;1271;137578;-63
2022/07/14 05:56:28;;;;;;;5.00;2.50;;;;;;;28.56;50.03;99841.36;106242;1270;96466;-62
2022/07/14 05:59:01;;;;;;;4.10;2.90;;;;;;;30.19;47.17;99836.66;106544;1271;138955;-63
2022/07/14 06:01:54;;;;;;;9.50;2.90;;;;;;;31.49;44.99;99841.50;107845;1270;108976;-62
2022/07/14 06:04:27;;;;;;;5.50;2.30;;;;;;;32.65;42.80;99835.40;106450;1272;138142;-63
2022/07/14 06:06:59;;;;;;;4.10;3.30;;;;;;;34.00;40.85;99836.65;107746;1271;94930;-63
2022/07/14 06:09:35;;;;;;;2.90;2.00;;;;;;;35.33;38.99;99838.08;107874;1270;94669;-61
2022/07/14 06:12:08;;;;;;;4.60;2.30;;;;;;;36.78;37.20;99830.94;107687;1271;137101;-63
2022/07/14 06:14:44;;;;;;;5.10;2.30;;;;;;;37.99;35.35;99827.38;107812;1271;108872;-63
2022/07/14 06:17:16;;;;;;;4.70;2.60;;;;;;;38.97;33.00;99825.10;107658;1271;137361;-63
2022/07/14 06:19:49;;;;;;;6.20;2.10;;;;;;;39.58;31.36;99831.36;106999;1271;96478;-63
2022/07/14 06:22:21;;;;;;;4.60;2.20;;;;;;;40.25;30.47;99832.41;106136;1271;138822;-63
2022/07/14 06:24:55;;;;;;;5.80;1.80;;;;;;;40.93;29.46;99829.45;106308;1270;110040;-62
2022/07/14 06:27:29;;;;;;;3.00;1.90;;;;;;;41.51;28.49;99825.03;106341;1270;109746;-65
2022/07/14 06:30:05;;;;;;;2.20;1.60;;;;;;;41.94;27.08;99825.48;107661;1270;137326;-64
2022/07/14 06:32:40;;;;;;;2.20;1.60;;;;;;;42.03;26.58;99821.21;107719;1271;95050;-63
2022/07/14 06:35:13;;;;;;;3.60;1.50;;;;;;;42.16;25.82;99825.13;107669;1271;138287;-64
2022/07/14 06:37:46;;;;;;;7.40;1.70;;;;;;;42.40;25.46;99827.27;107766;1271;111402;-63
2022/07/14 06:40:18;;;;;;;5.90;2.10;;;;;;;42.77;24.89;99827.56;107649;1271;137480;-64
2022/07/14 06:42:51;;;;;;;4.20;1.80;;;;;;;43.17;24.47;99827.86;107794;1270;108786;-64
2022/07/14 06:45:41;;;;;;;2.40;1.50;;;;;;;43.61;23.13;99833.59;107667;1271;94814;-73
2022/07/14 06:48:13;;;;;;;5.70;1.70;;;;;;;43.57;23.15;99833.92;107748;1270;137128;-72
2022/07/14 06:50:47;;;;;;;3.00;1.70;;;;;;;43.82;22.50;99837.54;107751;1270;111132;-72
2022/07/14 06:53:20;;;;;;;2.90;1.40;;;;;;;44.13;22.31;99826.92;107716;1270;137235;-74
2022/07/14 06:55:52;;;;;;;3.40;1.60;;;;;;;44.17;21.46;99827.57;106850;1271;108029;-72
2022/07/14 06:58:25;;;;;;;3.10;1.50;;;;;;;43.94;21.77;99828.77;106067;1270;137880;-72
2022/07/14 07:00:57;;;;;;;2.20;1.50;;;;;;;44.04;21.69;99828.96;106191;1270;97173;-72
2022/07/14 07:03:30;;;;;;;3.30;1.40;;;;;;;44.28;21.10;99832.58;106237;1271;110956;-72
2022/07/14 07:08:52;;;;;;;2.50;1.50;;;;;;;44.51;20.73;99819.34;106911;1270;109184;-72
2022/07/14 07:11:25;;;;;;;2.10;1.80;;;;;;;44.45;20.36;99827.55;107626;1270;137367;-72
2022/07/14 07:13:57;;;;;;;3.90;1.50;;;;;;;44.28;20.55;99825.76;107867;1270;94477;-75
2022/07/14 07:16:29;;;;;;;2.90;1.50;;;;;;;44.04;20.63;99828.52;107737;1270;138976;-70
2022/07/14 07:19:02;;;;;;;5.50;1.70;;;;;;;44.09;20.44;99824.34;107248;1270;107076;-70
2022/07/14 07:21:34;;;;;;;3.20;1.30;;;;;;;44.00;19.67;99822.54;107856;1270;108972;-71
2022/07/14 07:24:07;;;;;;;4.10;1.60;;;;;;;43.75;20.27;99821.17;107720;1270;137203;-70
2022/07/14 07:26:42;;;;;;;2.20;1.40;;;;;;;43.96;20.05;99823.54;107237;1270;95428;-70
2022/07/14 07:29:14;;;;;;;3.10;1.80;;;;;;;44.08;19.47;99818.52;106189;1270;137529;-69
2022/07/14 07:31:47;;;;;;;1.70;1.10;;;;;;;44.04;18.86;99815.29;106368;1271;107571;-69
2022/07/14 07:34:20;;;;;;;3.50;1.30;;;;;;;43.64;19.12;99816.06;106593;1270;137586;-68
2022/07/14 07:36:52;;;;;;;3.50;1.20;;;;;;;43.60;19.23;99821.66;107802;1270;94824;-70
2022/07/14 07:39:45;;;;;;;1.90;1.20;;;;;;;43.53;18.84;99812.57;106672;1270;96455;-69
2022/07/14 07:42:18;;;;;;;2.60;1.20;;;;;;;43.32;19.13;99812.74;106284;1271;137200;-68
2022/07/14 07:44:50;;;;;;;4.50;1.30;;;;;;;42.68;19.36;99820.94;106333;1271;109330;-69
2022/07/14 07:47:23;;;;;;;2.10;1.00;;;;;;;42.32;19.82;99818.09;106209;1270;137424;-68
2022/07/14 07:49:55;;;;;;;1.60;1.30;;;;;;;42.09;19.63;99819.05;106913;1270;96531;-68
2022/07/14 07:52:28;;;;;;;4.70;1.40;;;;;;;41.43;20.19;99811.72;107708;1269;137321;-69
2022/07/14 07:55:00;;;;;;;3.80;1.20;;;;;;;41.41;20.65;99814.76;107823;1269;109579;-69
2022/07/14 07:57:53;;;;;;;1.20;1.10;;;;;;;41.24;20.30;99814.89;107829;1270;108748;-69
2022/07/14 08:00:25;;;;;;;1.70;1.30;;;;;;;40.97;20.42;99818.27;107690;1270;137175;-69
2022/07/14 08:03:00;;;;;;;4.20;1.30;;;;;;;41.02;20.79;99819.88;107803;1270;94628;-69
2022/07/14 08:05:34;;;;;;;5.80;1.50;;;;;;;41.07;20.85;99815.99;107752;1270;137710;-70
2022/07/14 08:08:26;;;;;;;3.50;1.60;;;;;;;41.19;20.59;99814.45;106559;1270;111621;-69
2022/07/14 08:10:59;;;;;;;5.60;1.60;;;;;;;41.00;20.08;99818.17;106315;1270;137475;-69
2022/07/14 08:13:31;;;;;;;2.80;1.20;;;;;;;40.83;20.28;99815.75;107713;1269;108931;-69
2022/07/14 08:16:04;;;;;;;2.20;1.10;;;;;;;40.61;20.22;99821.41;106313;1270;96879;-67
2022/07/14 08:18:37;;;;;;;3.50;1.40;;;;;;;40.33;20.66;99828.86;106324;1270;96497;-67
2022/07/14 08:21:10;;;;;;;5.40;1.20;;;;;;;40.16;20.98;99827.06;107827;1269;111714;-67
2022/07/14 08:23:43;;;;;;;4.30;1.20;;;;;;;39.87;20.45;99828.11;107771;1269;137349;-68
2022/07/14 08:26:16;;;;;;;2.60;1.50;;;;;;;39.55;20.78;99827.50;106828;1270;108836;-69
2022/07/14 08:28:49;;;;;;;2.10;1.10;;;;;;;39.29;20.94;99828.14;106210;1271;137521;-68
2022/07/14 08:31:22;;;;;;;3.80;1.10;;;;;;;39.15;21.31;99828.34;106252;1270;96573;-69
2022/07/14 08:33:55;;;;;;;2.20;1.30;;;;;;;39.42;21.47;99828.09;106247;1270;111161;-67
2022/07/14 08:36:28;;;;;;;4.60;1.30;;;;;;;39.62;21.32;99831.39;107734;1270;138219;-67
2022/07/14 08:39:01;;;;;;;5.00;1.50;;;;;;;39.52;21.21;99820.47;107793;1270;108874;-67
2022/07/14 08:41:34;;;;;;;3.80;1.40;;;;;;;39.28;21.44;99823.44;107636;1270;137249;-69
2022/07/14 08:44:07;;;;;;;5.20;1.30;;;;;;;38.95;21.64;99827.08;107143;1270;95145;-67
2022/07/14 08:46:40;;;;;;;2.60;1.10;;;;;;;38.93;21.13;99823.81;107696;1271;138075;-67
2022/07/14 08:49:17;;;;;;;2.10;1.20;;;;;;;38.80;21.06;99826.77;107852;1269;108098;-67
2022/07/14 08:52:10;;;;;;;3.30;1.20;;;;;;;38.51;20.53;99830.70;106628;1270;138613;-65
2022/07/14 08:54:44;;;;;;;4.40;1.40;;;;;;;38.20;21.26;99831.98;106191;1269;96484;-67
2022/07/14 08:57:16;;;;;;;3.90;1.40;;;;;;;38.05;21.02;99828.86;106402;1270;96505;-66
2022/07/14 08:59:49;;;;;;;3.00;1.40;;;;;;;37.63;21.42;99835.77;106206;1270;137346;-66
2022/07/14 09:02:23;;;;;;;4.00;1.60;;;;;;;37.55;22.08;99838.36;106337;1270;107378;-66
2022/07/14 09:04:55;;;;;;;2.90;1.50;;;;;;;37.69;22.00;99840.13;107711;1269;138588;-66
2022/07/14 09:07:38;;;;;;;2.90;1.30;;;;;;;37.49;21.66;99837.27;107443;1270;96645;-67
2022/07/14 09:10:12;;;;;;;4.00;1.50;;;;;;;37.45;22.28;99845.92;106179;1270;137553;-66
2022/07/14 09:12:45;;;;;;;3.00;1.50;;;;;;;37.58;22.13;99844.25;107827;1270;110073;-67
2022/07/14 09:18:21;;;;;;;3.20;1.40;;;;;;;37.16;22.17;99839.25;106222;1270;137466;-67
2022/07/14 09:20:56;;;;;;;4.40;1.40;;;;;;;36.94;22.21;99836.61;106592;1270;96507;-67
2022/07/14 09:23:31;;;;;;;4.20;1.50;;;;;;;36.86;22.60;99839.86;107706;1270;138166;-68
2022/07/14 09:26:15;;;;;;;4.80;1.70;;;;;;;36.78;22.06;99835.34;106525;1270;111365;-67
2022/07/14 09:28:51;;;;;;;4.80;1.50;;;;;;;36.61;22.26;99838.48;107558;1270;138178;-67
2022/07/14 09:31:27;;;;;;;5.70;1.70;;;;;;;36.63;22.84;99836.86;107384;1270;107849;-67
2022/07/14 09:34:05;;;;;;;6.00;1.50;;;;;;;36.82;22.61;99837.96;106928;1270;96504;-67
2022/07/14 09:36:38;;;;;;;3.10;1.50;;;;;;;36.90;22.48;99841.44;107860;1270;94917;-67
2022/07/14 09:39:14;;;;;;;3.50;1.20;;;;;;;36.86;21.67;99841.36;107044;1270;111125;-66
2022/07/14 09:41:54;;;;;;;4.80;1.30;;;;;;;36.70;21.08;99829.17;107613;1270;137414;-67
2022/07/14 09:44:26;;;;;;;3.00;1.20;;;;;;;36.41;21.35;99830.74;107510;1270;108915;-68
2022/07/14 09:46:59;;;;;;;3.60;1.20;;;;;;;36.29;21.60;99842.16;106060;1270;138454;-68
2022/07/14 09:49:32;;;;;;;4.10;1.30;;;;;;;36.22;21.25;99833.77;106353;1270;96438;-67
2022/07/14 09:52:30;;;;;;;3.00;1.30;;;;;;;36.05;21.39;99838.55;106184;1270;137914;-66
2022/07/14 09:55:03;;;;;;;2.50;1.40;;;;;;;36.06;21.42;99837.88;106350;1270;109093;-67
2022/07/14 09:57:41;;;;;;;2.60;1.10;;;;;;;35.94;20.58;99833.08;106375;1270;108834;-67
2022/07/14 10:00:19;;;;;;;2.80;1.10;;;;;;;35.65;20.66;99833.70;106139;1270;137525;-67
2022/07/14 10:02:52;;;;;;;4.10;1.10;;;;;;;35.53;20.96;99834.31;106362;1270;96325;-66
2022/07/14 10:05:26;;;;;;;2.50;1.40;;;;;;;35.43;21.11;99831.36;107715;1270;137697;-67
2022/07/14 10:08:02;;;;;;;1.90;1.10;;;;;;;35.24;20.59;99838.88;107854;1270;108871;-67
2022/07/14 10:10:38;;;;;;;3.50;1.40;;;;;;;35.01;20.52;99833.45;107113;1270;138576;-67
2022/07/14 10:13:09;;;;;;;;;;;;;;;34.87;20.70;99833.63;106340;1269;96458;-67
2022/07/14 10:15:44;;;;;;;1.90;1.10;;;;;;;34.74;20.96;99828.16;106468;1270;96462;-66
2022/07/14 10:18:17;;;;;;;2.60;1.40;;;;;;;34.61;20.98;99830.95;106094;1270;137250;-66
2022/07/14 10:20:52;;;;;;;2.80;1.40;;;;;;;34.34;21.41;99835.11;107018;1269;109288;-66
2022/07/14 10:23:25;;;;;;;6.30;1.30;;;;;;;34.23;21.56;99832.71;106172;1270;137286;-68
2022/07/14 10:26:00;;;;;;;4.30;1.30;;;;;;;34.24;21.88;99833.66;106177;1270;96479;-66
2022/07/14 10:28:33;;;;;;;4.40;1.30;;;;;;;34.33;21.98;99826.88;106204;1270;138833;-66
2022/07/14 10:31:21;;;;;;;4.50;1.20;;;;;;;34.48;21.90;99825.54;106364;1270;111222;-66
2022/07/14 10:34:01;;;;;;;5.90;1.40;;;;;;;34.42;21.65;99828.71;107835;1270;109080;-66
2022/07/14 10:36:39;;;;;;;5.40;1.30;;;;;;;34.30;21.84;99826.70;107854;1270;108804;-66
2022/07/14 10:39:23;;;;;;;3.10;1.40;;;;;;;34.20;21.38;99826.15;107005;1270;96503;-66
2022/07/14 10:42:16;;;;;;;3.10;1.30;;;;;;;34.02;21.90;99824.53;107744;1270;137231;-66
2022/07/14 10:44:50;;;;;;;3.80;1.50;;;;;;;33.83;22.48;99822.64;106276;1270;111019;-66
2022/07/14 10:47:25;;;;;;;3.60;1.60;;;;;;;33.76;22.85;99815.69;107760;1270;138786;-66
2022/07/14 10:50:13;;;;;;;3.40;1.60;;;;;;;33.62;22.82;99822.81;107853;1270;107664;-66
2022/07/14 10:52:58;;;;;;;7.00;1.40;;;;;;;33.28;22.69;99818.91;107731;1270;137633;-66
2022/07/14 10:55:47;;;;;;;3.40;1.70;;;;;;;32.79;22.59;99821.52;107911;1270;94322;-66
2022/07/14 10:58:31;;;;;;;3.10;1.50;;;;;;;32.41;22.83;99826.38;107713;1270;137905;-67
2022/07/14 11:01:09;;;;;;;3.70;1.60;;;;;;;32.03;23.38;99836.10;107557;1270;108641;-66
2022/07/14 11:03:50;;;;;;;5.00;1.60;;;;;;;31.65;23.75;99836.27;106549;1270;108810;-66
2022/07/14 11:06:23;;;;;;;4.70;1.60;;;;;;;31.24;24.38;99833.45;107669;1270;137858;-66
2022/07/14 11:09:40;;;;;;;5.30;1.80;;;;;;;30.95;24.71;99830.77;107803;1270;94362;-66
2022/07/14 11:12:21;;;;;;;3.40;1.80;;;;;;;30.78;25.03;99832.41;107756;1270;138875;-66
2022/07/14 11:14:53;;;;;;;4.70;1.50;;;;;;;30.68;24.73;99827.66;106940;1270;110274;-68
2022/07/14 11:17:40;;;;;;;5.10;1.40;;;;;;;30.56;24.58;99820.54;106197;1270;137485;-66
2022/07/14 11:20:13;;;;;;;4.10;1.70;;;;;;;30.46;24.40;99826.48;106266;1270;96479;-67
2022/07/14 11:23:16;;;;;;;3.30;1.40;;;;;;;30.30;24.52;99821.73;106200;1268;137731;-67
2022/07/14 11:25:49;;;;;;;3.10;1.40;;;;;;;30.13;24.88;99829.81;107786;1269;109843;-68
2022/07/14 11:28:42;;;;;;;5.50;1.60;;;;;;;29.95;25.19;99834.25;107744;1269;137511;-67
2022/07/14 11:31:17;;;;;;;5.10;1.70;;;;;;;29.76;25.26;99836.15;107794;1270;108798;-67
2022/07/14 11:36:45;;;;;;;3.10;1.40;;;;;;;29.65;26.10;99832.20;107807;1270;96782;-68
2022/07/14 11:39:28;;;;;;;4.10;1.70;;;;;;;29.45;25.67;99821.97;107843;1270;110039;-69
2022/07/14 11:42:12;;;;;;;4.20;1.70;;;;;;;29.30;26.20;99829.81;107714;1270;137817;-67
2022/07/14 11:44:54;;;;;;;4.20;1.60;;;;;;;29.12;26.40;99827.13;107774;1270;108840;-66
2022/07/14 11:47:29;;;;;;;12.60;1.60;;;;;;;28.94;26.33;99819.52;107659;1269;138429;-66
2022/07/14 11:50:04;;;;;;;6.70;1.60;;;;;;;28.77;26.53;99825.95;107849;1270;94964;-66
2022/07/14 11:52:44;;;;;;;4.60;1.60;;;;;;;28.66;26.37;99830.35;107768;1270;137459;-65
2022/07/14 11:55:17;;;;;;;3.40;1.60;;;;;;;28.47;25.71;99818.61;107861;1270;109041;-65
2022/07/14 11:57:53;;;;;;;2.90;1.60;;;;;;;28.35;26.54;99823.92;107826;1269;108980;-65
2022/07/14 12:00:25;;;;;;;5.20;1.60;;;;;;;28.33;27.29;99822.23;107703;1270;137298;-66
2022/07/14 12:02:59;;;;;;;8.00;1.40;;;;;;;28.32;27.51;99823.56;106644;1270;96468;-66
2022/07/14 12:05:31;;;;;;;3.20;1.20;;;;;;;28.36;27.19;99822.39;107710;1269;137094;-67
2022/07/14 12:08:05;;;;;;;4.80;1.50;;;;;;;28.41;26.47;99819.33;107824;1269;108238;-66